Time;durP1;ratioP1;P1;durP2;ratioP2;P2;SDS_P1;SDS_P2;PMS_P1;PMS_P2;Temp;Humidity;BMP_temperature;BMP_pressure;BME280_temperature;BME280_humidity;BME280_pressure;Samples;Min_cycle;Max_cycle;Signal;HPM_P1;HPM_P2
2022/09/04 00:00:09;;;;;;;3.28;0.40;;;15.90;77.10;;;;;;4993203;28;20354;-78
2022/09/04 00:02:40;;;;;;;2.00;0.47;;;15.80;78.30;;;;;;5019367;28;20041;-78
2022/09/04 00:05:15;;;;;;;2.33;0.30;;;15.70;78.00;;;;;;5022132;28;20046;-78
2022/09/04 00:07:59;;;;;;;1.50;0.50;;;15.60;78.70;;;;;;5070648;28;20389;-79
2022/09/04 00:10:36;;;;;;;7.82;0.93;;;15.40;79.00;;;;;;5062770;28;20550;-79
2022/09/04 00:13:09;;;;;;;2.90;0.57;;;15.30;79.70;;;;;;5012920;28;20090;-78
2022/09/04 00:15:42;;;;;;;2.38;0.50;;;15.20;80.20;;;;;;5040492;28;20444;-78
2022/09/04 00:18:24;;;;;;;1.70;0.50;;;15.10;80.80;;;;;;5060015;28;20035;-78
2022/09/04 00:21:21;;;;;;;2.00;0.57;;;15.00;81.20;;;;;;5030237;28;20403;-78
2022/09/04 00:23:57;;;;;;;1.48;0.40;;;14.90;81.90;;;;;;4963755;28;20112;-79
2022/09/04 00:26:51;;;;;;;4.88;0.93;;;14.80;82.70;;;;;;5061804;28;20515;-79
2022/09/04 00:29:21;;;;;;;3.75;0.73;;;14.80;83.50;;;;;;5011861;28;20045;-78
2022/09/04 00:32:17;;;;;;;2.70;0.70;;;14.70;83.60;;;;;;5076793;28;20078;-78
2022/09/04 00:35:01;;;;;;;2.58;0.57;;;14.60;84.80;;;;;;5095211;28;20034;-79
2022/09/04 00:37:36;;;;;;;1.30;0.80;;;14.50;84.70;;;;;;5052759;28;20464;-78
2022/09/04 00:40:15;;;;;;;1.52;0.50;;;14.40;85.50;;;;;;5013646;28;20445;-78
2022/09/04 00:43:12;;;;;;;2.42;0.80;;;14.30;86.40;;;;;;5013970;28;20125;-78
2022/09/04 00:46:11;;;;;;;3.15;0.40;;;14.30;87.00;;;;;;5028443;28;20033;-78
2022/09/04 00:48:56;;;;;;;2.30;0.60;;;14.20;87.80;;;;;;5067930;28;20110;-78
2022/09/04 00:51:39;;;;;;;1.95;0.55;;;14.20;88.80;;;;;;5099644;28;20136;-78
2022/09/04 00:54:33;;;;;;;2.65;0.90;;;14.10;89.50;;;;;;5082509;28;20065;-78
2022/09/04 00:57:12;;;;;;;2.35;0.65;;;14.10;90.10;;;;;;5053203;28;20098;-79
2022/09/04 01:00:14;;;;;;;3.13;0.98;;;14.00;90.10;;;;;;5095192;28;20135;-78
2022/09/04 01:03:09;;;;;;;4.15;1.48;;;13.90;90.30;;;;;;5010510;28;20126;-78
2022/09/04 01:05:55;;;;;;;1.55;0.70;;;13.90;90.30;;;;;;5008153;28;20050;-78
2022/09/04 01:08:33;;;;;;;;;;;13.90;90.90;;;;;;5024110;28;20387;-78
2022/09/04 01:11:25;;;;;;;2.30;1.00;;;13.80;91.50;;;;;;5029707;28;19928;-78
2022/09/04 01:13:53;;;;;;;2.63;0.98;;;13.70;91.40;;;;;;5031295;28;20102;-79
2022/09/04 01:16:25;;;;;;;3.28;0.93;;;13.70;91.20;;;;;;5055619;28;20116;-80
2022/09/04 01:19:05;;;;;;;1.35;0.77;;;13.60;91.70;;;;;;5051771;28;20583;-80
2022/09/04 01:22:10;;;;;;;3.40;0.63;;;13.60;92.30;;;;;;5061214;28;20128;-79
2022/09/04 01:24:42;;;;;;;5.68;1.15;;;13.50;92.90;;;;;;5018170;27;20061;-79
2022/09/04 01:27:28;;;;;;;2.00;1.15;;;13.60;92.90;;;;;;5059753;28;20093;-80
2022/09/04 01:30:17;;;;;;;2.13;0.60;;;13.60;93.70;;;;;;5042804;28;20164;-79
2022/09/04 01:33:09;;;;;;;5.50;1.00;;;13.60;94.10;;;;;;5017586;28;20448;-80
2022/09/04 01:36:02;;;;;;;2.45;1.20;;;13.50;94.20;;;;;;5046551;28;20031;-79
2022/09/04 01:38:42;;;;;;;5.40;1.70;;;13.50;94.10;;;;;;5060500;28;20040;-80
2022/09/04 01:41:26;;;;;;;5.10;1.33;;;13.50;94.40;;;;;;5018980;28;20057;-79
2022/09/04 01:43:52;;;;;;;4.75;1.02;;;13.40;94.50;;;;;;5002096;28;20041;-80
2022/09/04 01:46:40;;;;;;;2.63;1.17;;;13.40;94.80;;;;;;5047744;28;20128;-81
2022/09/04 01:49:35;;;;;;;2.25;1.02;;;13.40;95.40;;;;;;5110520;28;20047;-79
2022/09/04 01:52:06;;;;;;;3.35;1.05;;;13.30;96.00;;;;;;4996539;28;20057;-77
2022/09/04 01:54:33;;;;;;;3.58;1.45;;;13.30;96.10;;;;;;5000420;28;20047;-78
2022/09/04 01:57:19;;;;;;;4.07;0.90;;;13.30;96.40;;;;;;5116448;27;20071;-79
2022/09/04 02:00:00;;;;;;;2.25;0.82;;;13.30;96.80;;;;;;5082904;28;20213;-79
2022/09/04 02:02:52;;;;;;;2.92;1.33;;;13.30;97.10;;;;;;5053469;28;20400;-80
2022/09/04 02:05:24;;;;;;;3.20;1.33;;;13.30;97.10;;;;;;5033180;28;20423;-79
2022/09/04 02:07:59;;;;;;;2.38;1.00;;;13.30;97.20;;;;;;5056935;28;20116;-80
2022/09/04 02:10:55;;;;;;;4.30;1.03;;;13.20;97.40;;;;;;5050987;28;20073;-79
2022/09/04 02:13:39;;;;;;;2.20;1.33;;;13.20;97.90;;;;;;5015712;28;20090;-80
2022/09/04 02:16:32;;;;;;;5.03;1.42;;;13.20;98.00;;;;;;5058895;28;20047;-79
2022/09/04 02:19:34;;;;;;;3.25;1.98;;;13.20;98.70;;;;;;5105866;28;20050;-79
2022/09/04 02:22:11;;;;;;;2.63;0.63;;;13.30;98.80;;;;;;5052281;28;20045;-78
2022/09/04 02:24:59;;;;;;;2.95;1.10;;;13.20;98.80;;;;;;5001873;28;20049;-79
2022/09/04 02:27:38;;;;;;;3.97;1.02;;;13.30;99.10;;;;;;5081541;28;20407;-79
2022/09/04 02:30:10;;;;;;;2.40;1.08;;;13.20;99.40;;;;;;5036233;28;20487;-79
2022/09/04 02:32:53;;;;;;;4.80;0.88;;;13.30;99.50;;;;;;5016902;28;20045;-79
2022/09/04 02:35:27;;;;;;;3.45;0.75;;;13.30;99.70;;;;;;5034831;28;20126;-79
2022/09/04 02:38:00;;;;;;;2.53;1.23;;;13.30;99.60;;;;;;5034255;28;20046;-78
2022/09/04 02:40:39;;;;;;;1.75;0.82;;;13.30;99.80;;;;;;5016467;28;20041;-79
2022/09/04 02:43:38;;;;;;;2.38;0.95;;;13.30;99.90;;;;;;5014211;28;20049;-78
2022/09/04 02:46:27;;;;;;;1.25;0.70;;;13.30;99.90;;;;;;5032331;28;20095;-78
2022/09/04 02:49:30;;;;;;;3.17;1.13;;;13.30;99.90;;;;;;5031350;28;20038;-79
2022/09/04 02:52:13;;;;;;;2.97;1.05;;;13.30;99.90;;;;;;5033014;28;20487;-79
2022/09/04 02:55:08;;;;;;;3.17;1.38;;;13.30;99.90;;;;;;5021604;28;20490;-79
2022/09/04 02:57:53;;;;;;;2.45;1.60;;;13.30;99.90;;;;;;5026401;28;20087;-78
2022/09/04 03:00:20;;;;;;;;;;;13.30;99.90;;;;;;5034137;28;20049;-79
2022/09/04 03:02:54;;;;;;;2.63;0.98;;;13.30;99.90;;;;;;5031651;28;19967;-78
2022/09/04 03:05:24;;;;;;;3.17;1.70;;;13.30;99.90;;;;;;5031890;28;20060;-78
2022/09/04 03:07:55;;;;;;;3.80;0.75;;;13.30;99.90;;;;;;5048652;28;20063;-79
2022/09/04 03:10:33;;;;;;;2.38;0.93;;;13.30;99.90;;;;;;5032986;28;20041;-79
2022/09/04 03:13:19;;;;;;;1.85;0.80;;;13.30;99.90;;;;;;5086547;28;20056;-79
2022/09/04 03:16:11;;;;;;;2.40;1.20;;;13.30;99.90;;;;;;5031069;28;20120;-79
2022/09/04 03:18:53;;;;;;;3.60;0.73;;;13.30;99.90;;;;;;5029777;28;20038;-79
2022/09/04 03:21:30;;;;;;;2.10;0.80;;;13.30;99.90;;;;;;5034362;28;20069;-79
2022/09/04 03:24:07;;;;;;;1.70;1.10;;;13.30;99.90;;;;;;5034219;28;20042;-79
2022/09/04 03:26:40;;;;;;;3.40;1.60;;;13.20;99.90;;;;;;5041098;28;20033;-79
2022/09/04 03:29:23;;;;;;;2.28;1.05;;;13.20;99.90;;;;;;5033108;28;20093;-80
2022/09/04 03:31:52;;;;;;;2.05;1.02;;;13.10;99.90;;;;;;5102223;28;20503;-79
2022/09/04 03:34:46;;;;;;;2.80;0.95;;;13.10;99.90;;;;;;5101480;28;20115;-79
2022/09/04 03:37:17;;;;;;;2.70;1.27;;;13.10;99.90;;;;;;5101428;28;20301;-79
2022/09/04 03:40:07;;;;;;;2.15;1.17;;;13.10;99.90;;;;;;5014982;28;20174;-79
2022/09/04 03:43:01;;;;;;;2.47;1.27;;;13.10;99.90;;;;;;5032793;28;20037;-79
2022/09/04 03:45:47;;;;;;;2.15;1.13;;;13.10;99.90;;;;;;5042311;28;20046;-79
2022/09/04 03:48:38;;;;;;;3.60;1.35;;;13.00;99.90;;;;;;5092213;28;20105;-79
2022/09/04 03:51:24;;;;;;;2.78;1.10;;;13.00;99.90;;;;;;5067995;28;20064;-76
2022/09/04 03:54:22;;;;;;;2.17;1.17;;;13.00;99.90;;;;;;5105493;28;20085;-76
2022/09/04 03:57:26;;;;;;;4.03;1.30;;;12.90;99.90;;;;;;5022308;28;20093;-76
2022/09/04 04:00:06;;;;;;;6.60;2.63;;;12.90;99.90;;;;;;5047700;28;20046;-76
2022/09/04 04:02:43;;;;;;;5.25;1.42;;;12.80;99.90;;;;;;5056842;28;20082;-76
2022/09/04 04:05:38;;;;;;;3.13;1.45;;;12.80;99.90;;;;;;5090188;28;20543;-80
2022/09/04 04:08:31;;;;;;;3.05;1.35;;;12.80;99.90;;;;;;5020623;28;20372;-78
2022/09/04 04:11:23;;;;;;;2.67;1.10;;;12.70;99.90;;;;;;4993206;28;20054;-78
2022/09/04 04:14:17;;;;;;;3.55;1.50;;;12.70;99.90;;;;;;4995387;28;20042;-79
2022/09/04 04:16:54;;;;;;;2.70;1.42;;;12.70;99.90;;;;;;5055687;28;20045;-79
2022/09/04 04:19:44;;;;;;;3.28;1.90;;;12.70;99.90;;;;;;5011086;28;20048;-78
2022/09/04 04:22:28;;;;;;;4.88;1.60;;;12.70;99.90;;;;;;5012999;28;20048;-78
2022/09/04 04:25:23;;;;;;;4.35;1.40;;;12.60;99.90;;;;;;5053182;28;20039;-79
2022/09/04 04:28:18;;;;;;;1.50;1.17;;;12.60;99.90;;;;;;5094034;28;20520;-79
2022/09/04 04:30:53;;;;;;;2.80;1.50;;;12.60;99.90;;;;;;5118319;28;20061;-80
2022/09/04 04:33:51;;;;;;;7.45;1.45;;;12.60;99.90;;;;;;5048117;28;20068;-79
2022/09/04 04:36:40;;;;;;;4.03;1.48;;;12.60;99.90;;;;;;5064530;28;20060;-79
2022/09/04 04:39:26;;;;;;;7.38;1.63;;;12.60;99.90;;;;;;5051576;28;20123;-79
2022/09/04 04:42:19;;;;;;;2.95;1.30;;;12.60;99.90;;;;;;5019414;28;20201;-78
2022/09/04 04:48:36;;;;;;;4.60;1.90;;;12.50;99.90;;;;;;5055282;28;20169;-79
2022/09/04 04:51:05;;;;;;;2.17;0.98;;;12.60;99.90;;;;;;5012585;28;20059;-78
2022/09/04 04:53:45;;;;;;;3.47;1.45;;;12.60;99.90;;;;;;4996857;28;20042;-79
2022/09/04 04:56:44;;;;;;;2.80;1.42;;;12.60;99.90;;;;;;5029174;28;20098;-79
2022/09/04 04:59:29;;;;;;;3.47;1.35;;;12.60;99.90;;;;;;5030264;28;20102;-79
2022/09/04 05:02:34;;;;;;;4.67;1.73;;;12.60;99.90;;;;;;5010879;28;20404;-79
2022/09/04 05:05:22;;;;;;;4.43;1.60;;;12.60;99.90;;;;;;5022722;28;20498;-79
2022/09/04 05:08:08;;;;;;;3.08;2.22;;;12.60;99.90;;;;;;5063319;28;20139;-78
2022/09/04 05:10:46;;;;;;;4.93;1.45;;;12.70;99.90;;;;;;5112653;28;20047;-79
2022/09/04 05:13:46;;;;;;;3.30;1.58;;;12.70;99.90;;;;;;5112630;28;20036;-79
2022/09/04 05:16:34;;;;;;;3.13;1.15;;;12.70;99.90;;;;;;5063772;28;20053;-78
2022/09/04 05:19:16;;;;;;;2.90;1.63;;;12.70;99.90;;;;;;5100773;28;20421;-79
2022/09/04 05:21:52;;;;;;;3.28;1.90;;;12.70;99.90;;;;;;5100183;28;20090;-78
2022/09/04 05:24:37;;;;;;;2.13;1.48;;;12.70;99.90;;;;;;5049414;27;20041;-78
2022/09/04 05:27:16;;;;;;;3.05;1.73;;;12.70;99.90;;;;;;5054285;28;20045;-78
2022/09/04 05:30:02;;;;;;;4.18;2.13;;;12.70;99.90;;;;;;5028621;28;20049;-78
2022/09/04 05:32:32;;;;;;;4.47;1.67;;;12.70;99.90;;;;;;4991890;28;20069;-78
2022/09/04 05:35:03;;;;;;;4.55;2.13;;;12.70;99.90;;;;;;5000015;28;20038;-78
2022/09/04 05:37:47;;;;;;;3.50;1.65;;;12.80;99.90;;;;;;5026539;28;20474;-78
2022/09/04 05:40:13;;;;;;;7.20;1.50;;;12.80;99.90;;;;;;4991843;28;20117;-78
2022/09/04 05:42:59;;;;;;;3.30;1.60;;;12.90;99.90;;;;;;4991999;28;20053;-78
2022/09/04 05:45:41;;;;;;;5.00;1.95;;;12.90;99.90;;;;;;5013994;28;20033;-78
2022/09/04 05:48:31;;;;;;;2.85;1.70;;;13.00;99.90;;;;;;5052616;28;20044;-78
2022/09/04 05:51:04;;;;;;;3.28;1.50;;;13.10;99.90;;;;;;5097092;28;20052;-78
2022/09/04 05:53:50;;;;;;;5.68;2.13;;;13.10;99.90;;;;;;5097441;28;20128;-79
2022/09/04 05:56:15;;;;;;;;;;;13.20;99.90;;;;;;5053885;28;20041;-78
2022/09/04 05:59:14;;;;;;;2.55;1.55;;;13.30;99.90;;;;;;5086351;28;19920;-78
2022/09/04 06:02:04;;;;;;;5.32;1.92;;;13.30;99.90;;;;;;5111240;28;20443;-78
2022/09/04 06:04:32;;;;;;;2.70;1.17;;;13.40;99.90;;;;;;5022218;28;20128;-78
2022/09/04 06:07:23;;;;;;;5.18;1.65;;;13.50;99.90;;;;;;5053708;28;20136;-78
2022/09/04 06:10:19;;;;;;;2.45;1.20;;;13.60;99.90;;;;;;5080019;28;20052;-79
2022/09/04 06:12:59;;;;;;;3.22;1.25;;;13.80;99.90;;;;;;5028924;28;20034;-79
2022/09/04 06:15:51;;;;;;;2.92;1.75;;;13.90;99.90;;;;;;5071892;28;20128;-79
2022/09/04 06:18:34;;;;;;;2.63;1.60;;;14.10;99.90;;;;;;5052235;28;20037;-78
2022/09/04 06:21:25;;;;;;;2.38;1.38;;;14.20;99.90;;;;;;5098894;28;20043;-78
2022/09/04 06:24:06;;;;;;;4.20;1.30;;;14.30;99.90;;;;;;5110354;28;20043;-78
2022/09/04 06:26:42;;;;;;;2.22;1.90;;;14.50;99.90;;;;;;5047583;28;20127;-78
2022/09/04 06:29:56;;;;;;;2.42;1.35;;;14.60;99.90;;;;;;5104868;28;20039;-78
2022/09/04 06:32:52;;;;;;;2.25;1.55;;;14.80;99.90;;;;;;5108591;28;20089;-79
2022/09/04 06:35:22;;;;;;;3.53;1.88;;;14.90;99.90;;;;;;5011271;28;20037;-78
2022/09/04 06:38:05;;;;;;;3.20;1.70;;;15.00;99.90;;;;;;5066692;28;20443;-78
2022/09/04 06:40:56;;;;;;;5.85;1.65;;;15.20;99.90;;;;;;5005594;28;20037;-78
2022/09/04 06:43:33;;;;;;;2.22;1.52;;;15.20;99.90;;;;;;5008963;28;20034;-79
2022/09/04 06:46:18;;;;;;;4.05;2.40;;;15.30;99.90;;;;;;4980995;28;20045;-78
2022/09/04 06:49:12;;;;;;;5.17;1.77;;;15.40;99.90;;;;;;5028395;28;20052;-79
2022/09/04 06:52:20;;;;;;;4.18;1.50;;;15.50;99.90;;;;;;5030374;28;20068;-78
2022/09/04 06:54:57;;;;;;;4.70;1.70;;;15.60;99.90;;;;;;5009745;28;20049;-78
2022/09/04 06:57:47;;;;;;;4.35;1.90;;;15.60;99.90;;;;;;5064962;28;20059;-79
2022/09/04 07:00:18;;;;;;;2.72;1.48;;;15.80;99.90;;;;;;5053361;28;20125;-79
2022/09/04 07:03:05;;;;;;;4.28;1.92;;;15.80;99.90;;;;;;5051074;28;20440;-78
2022/09/04 07:05:52;;;;;;;4.43;1.85;;;15.90;99.90;;;;;;5010800;28;20041;-78
2022/09/04 07:08:41;;;;;;;4.13;1.35;;;16.00;99.90;;;;;;5052843;28;20025;-78
2022/09/04 07:11:16;;;;;;;2.42;1.73;;;16.20;99.90;;;;;;5045619;28;20049;-79
2022/09/04 07:13:59;;;;;;;2.67;2.00;;;16.40;99.90;;;;;;5036524;28;20038;-78
2022/09/04 07:16:40;;;;;;;2.42;1.85;;;16.50;99.90;;;;;;4991101;28;20135;-78
2022/09/04 07:19:41;;;;;;;3.47;1.63;;;16.60;99.90;;;;;;4992010;28;20046;-79
2022/09/04 07:22:26;;;;;;;2.97;1.58;;;16.80;99.90;;;;;;5052971;28;20141;-78
2022/09/04 07:25:11;;;;;;;3.50;1.63;;;17.00;99.90;;;;;;5096436;28;20497;-78
2022/09/04 07:28:09;;;;;;;4.28;1.55;;;17.30;99.90;;;;;;5096580;28;20064;-78
2022/09/04 07:30:48;;;;;;;2.42;1.42;;;17.60;99.90;;;;;;5024658;28;20056;-79
2022/09/04 07:33:26;;;;;;;2.50;1.00;;;17.90;99.90;;;;;;5068264;28;20035;-79
2022/09/04 07:36:24;;;;;;;3.05;1.15;;;18.10;99.50;;;;;;5112063;28;20048;-79
2022/09/04 07:39:19;;;;;;;6.45;2.25;;;18.30;99.40;;;;;;5104179;28;20533;-79
2022/09/04 07:41:52;;;;;;;3.57;1.27;;;18.50;99.20;;;;;;5053363;28;20038;-79
2022/09/04 07:44:29;;;;;;;5.95;2.45;;;18.70;98.80;;;;;;4995686;28;20272;-78
2022/09/04 07:47:11;;;;;;;6.10;1.92;;;18.90;97.90;;;;;;4994497;28;20496;-78
2022/09/04 07:49:43;;;;;;;3.35;1.60;;;19.00;97.20;;;;;;4997994;28;20128;-78
2022/09/04 07:52:38;;;;;;;3.17;1.27;;;19.10;96.60;;;;;;5056824;28;20046;-78
2022/09/04 07:55:11;;;;;;;4.40;1.52;;;19.20;96.40;;;;;;5074153;28;20034;-75
2022/09/04 07:58:06;;;;;;;1.95;1.25;;;19.40;96.40;;;;;;5024053;28;20045;-76
2022/09/04 08:01:09;;;;;;;3.53;1.58;;;19.60;95.70;;;;;;5028071;28;20039;-76
2022/09/04 08:04:05;;;;;;;2.65;1.15;;;19.70;95.00;;;;;;5024957;28;20056;-76
2022/09/04 08:06:57;;;;;;;3.17;1.13;;;19.80;95.10;;;;;;5099579;28;20042;-77
2022/09/04 08:09:57;;;;;;;4.93;1.75;;;20.00;94.40;;;;;;5030236;28;20068;-77
2022/09/04 08:12:55;;;;;;;5.28;2.42;;;20.30;93.50;;;;;;4993139;28;20403;-77
2022/09/04 08:15:42;;;;;;;8.10;2.25;;;20.40;93.00;;;;;;4993523;28;20046;-77
2022/09/04 08:18:08;;;;;;;3.22;1.20;;;20.60;93.30;;;;;;4993842;28;20121;-77
2022/09/04 08:21:05;;;;;;;3.38;0.77;;;20.60;93.10;;;;;;5006122;28;20128;-77
2022/09/04 08:23:47;;;;;;;2.20;1.30;;;20.70;92.70;;;;;;5049044;28;20034;-77
2022/09/04 08:26:21;;;;;;;2.10;1.42;;;20.80;91.70;;;;;;5011913;28;20037;-78
2022/09/04 08:28:59;;;;;;;5.25;1.42;;;21.00;91.30;;;;;;5036205;28;20046;-77
2022/09/04 08:31:35;;;;;;;15.45;3.42;;;21.20;91.60;;;;;;5033802;28;20043;-77
2022/09/04 08:34:10;;;;;;;4.20;1.42;;;21.50;91.60;;;;;;5020518;28;20117;-77
2022/09/04 08:37:00;;;;;;;2.30;1.10;;;21.70;90.40;;;;;;5053358;28;20074;-77
2022/09/04 08:39:44;;;;;;;5.88;2.55;;;21.80;89.40;;;;;;5067813;28;20114;-78
2022/09/04 08:42:46;;;;;;;10.82;2.25;;;21.80;89.70;;;;;;5056751;28;20041;-78
2022/09/04 08:45:21;;;;;;;1.70;0.85;;;22.10;89.50;;;;;;5055399;28;20057;-77
2022/09/04 08:48:19;;;;;;;;;;;22.10;89.00;;;;;;5045943;28;20139;-78
2022/09/04 08:51:14;;;;;;;13.25;2.10;;;22.30;88.20;;;;;;5027833;28;19974;-78
2022/09/04 08:54:19;;;;;;;2.60;1.23;;;22.60;86.50;;;;;;5082505;28;20043;-78
2022/09/04 08:57:13;;;;;;;5.97;1.20;;;22.70;84.50;;;;;;5050314;28;20344;-78
2022/09/04 08:59:56;;;;;;;4.30;0.90;;;22.80;85.90;;;;;;5056243;28;20394;-78
2022/09/04 09:03:06;;;;;;;1.30;0.93;;;23.00;84.10;;;;;;5015234;28;20045;-78
2022/09/04 09:05:54;;;;;;;6.47;0.85;;;23.10;82.30;;;;;;5023919;28;20048;-78
2022/09/04 09:08:28;;;;;;;3.00;1.08;;;23.20;82.30;;;;;;5010782;28;20092;-78
2022/09/04 09:11:32;;;;;;;8.50;1.60;;;23.30;82.70;;;;;;5014227;28;20044;-78
2022/09/04 09:14:16;;;;;;;3.20;0.75;;;23.60;82.30;;;;;;5017169;28;20045;-79
2022/09/04 09:17:03;;;;;;;1.83;0.70;;;23.90;79.50;;;;;;5021272;28;20487;-79
2022/09/04 09:19:58;;;;;;;2.00;0.63;;;24.00;79.80;;;;;;5013823;27;20048;-78
2022/09/04 09:22:30;;;;;;;;;;;24.10;79.40;;;;;;5043413;28;20399;-78
2022/09/04 09:25:12;;;;;;;2.03;0.90;;;24.30;79.10;;;;;;5013942;28;19924;-78
2022/09/04 09:27:53;;;;;;;2.05;0.93;;;24.60;77.40;;;;;;5007390;28;20127;-78
2022/09/04 09:30:20;;;;;;;4.75;0.88;;;24.70;76.10;;;;;;4992715;28;20131;-78
2022/09/04 09:32:57;;;;;;;2.22;0.60;;;24.70;75.60;;;;;;5007352;28;20179;-78
2022/09/04 09:35:40;;;;;;;5.88;0.80;;;24.80;75.30;;;;;;5010251;28;20448;-78
2022/09/04 09:38:31;;;;;;;62.22;43.40;;;24.90;73.60;;;;;;5011929;28;20041;-78
2022/09/04 09:41:24;;;;;;;36.22;18.80;;;25.00;73.60;;;;;;5017884;27;20405;-79
2022/09/04 09:44:08;;;;;;;5.13;3.58;;;25.20;73.00;;;;;;5047927;28;20141;-79
2022/09/04 09:46:57;;;;;;;12.25;8.20;;;25.20;72.30;;;;;;5077714;28;20047;-79
2022/09/04 09:49:42;;;;;;;6.13;3.22;;;25.30;71.30;;;;;;5055501;28;20094;-79
2022/09/04 09:52:29;;;;;;;4.28;0.77;;;25.30;71.30;;;;;;5012488;28;20057;-78
2022/09/04 09:55:03;;;;;;;1.88;0.50;;;25.30;71.60;;;;;;5029191;28;20044;-78
2022/09/04 09:58:00;;;;;;;1.92;0.63;;;25.30;71.50;;;;;;5072481;28;20041;-78
2022/09/04 10:00:35;;;;;;;0.80;0.52;;;25.20;69.00;;;;;;5056314;28;20047;-78
2022/09/04 10:03:01;;;;;;;1.58;0.57;;;25.20;69.70;;;;;;5090889;28;20043;-78
2022/09/04 10:06:11;;;;;;;11.50;2.30;;;25.30;69.80;;;;;;5051873;28;20049;-78
2022/09/04 10:09:10;;;;;;;2.88;0.88;;;25.30;69.80;;;;;;5083949;28;20060;-78
2022/09/04 10:12:13;;;;;;;6.55;1.08;;;25.50;68.70;;;;;;5076525;28;20436;-78
2022/09/04 10:14:52;;;;;;;2.78;0.63;;;25.50;66.80;;;;;;4992970;28;20144;-79
2022/09/04 10:17:36;;;;;;;3.10;0.75;;;25.60;68.60;;;;;;4993220;28;20502;-78
2022/09/04 10:20:39;;;;;;;1.17;0.40;;;25.60;66.70;;;;;;5085494;28;20053;-79
2022/09/04 10:23:40;;;;;;;4.28;0.65;;;25.50;66.50;;;;;;5052579;28;20132;-79
2022/09/04 10:26:27;;;;;;;4.03;0.50;;;25.60;66.40;;;;;;5029535;28;20049;-78
2022/09/04 10:29:18;;;;;;;1.92;0.82;;;25.90;66.50;;;;;;5054456;28;20105;-79
2022/09/04 10:32:05;;;;;;;2.25;0.40;;;26.20;66.00;;;;;;5012342;28;20057;-78
2022/09/04 10:34:43;;;;;;;1.75;0.63;;;26.20;64.40;;;;;;5011560;28;20037;-78
2022/09/04 10:37:19;;;;;;;3.17;0.45;;;26.30;64.80;;;;;;5011330;28;20049;-78
2022/09/04 10:43:08;;;;;;;1.88;0.57;;;26.70;63.20;;;;;;5011762;28;20398;-79
2022/09/04 10:45:41;;;;;;;6.25;0.70;;;26.90;62.20;;;;;;5011719;28;20072;-78
2022/09/04 10:48:41;;;;;;;2.42;0.40;;;27.10;62.80;;;;;;5028978;28;20048;-78
2022/09/04 10:51:49;;;;;;;2.28;0.60;;;27.20;60.70;;;;;;5022875;28;20049;-79
2022/09/04 10:54:34;;;;;;;1.58;0.50;;;26.90;60.60;;;;;;4991755;28;20049;-78
2022/09/04 10:57:21;;;;;;;2.08;0.80;;;26.80;61.60;;;;;;4991853;28;20121;-78
2022/09/04 11:00:07;;;;;;;1.15;0.50;;;26.80;61.30;;;;;;5008807;28;20399;-78
2022/09/04 11:03:02;;;;;;;10.85;1.17;;;27.00;59.80;;;;;;4992928;28;20463;-78
2022/09/04 11:05:43;;;;;;;5.88;0.98;;;27.20;60.70;;;;;;5008968;28;20042;-78
2022/09/04 11:08:27;;;;;;;1.20;0.30;;;27.50;60.60;;;;;;4991594;28;20046;-79
2022/09/04 11:11:18;;;;;;;10.20;1.00;;;27.80;59.60;;;;;;4991373;28;20053;-78
2022/09/04 11:14:11;;;;;;;1.08;0.38;;;28.10;58.80;;;;;;4975219;28;20061;-78
2022/09/04 11:16:51;;;;;;;13.70;1.20;;;28.20;57.50;;;;;;4991199;28;20040;-79
2022/09/04 11:19:20;;;;;;;3.65;0.60;;;28.20;58.40;;;;;;5010486;28;20091;-79
2022/09/04 11:21:54;;;;;;;13.05;2.28;;;28.10;58.80;;;;;;4991752;28;20050;-78
2022/09/04 11:24:44;;;;;;;23.75;2.55;;;28.10;59.20;;;;;;4990974;28;20131;-80
2022/09/04 11:27:47;;;;;;;30.00;3.17;;;28.40;59.30;;;;;;4991328;28;20539;-79
2022/09/04 11:30:22;;;;;;;1.63;0.47;;;28.80;58.20;;;;;;4992738;28;20084;-79
2022/09/04 11:33:09;;;;;;;7.13;0.95;;;29.00;56.90;;;;;;5044252;28;20086;-79
2022/09/04 11:36:10;;;;;;;4.90;1.08;;;29.20;56.70;;;;;;5089458;23;20500;-78
2022/09/04 11:38:57;;;;;;;0.95;0.32;;;29.20;56.80;;;;;;5026070;28;20039;-78
2022/09/04 11:41:46;;;;;;;1.17;0.65;;;28.80;56.40;;;;;;5081309;28;20493;-78
2022/09/04 11:44:49;;;;;;;4.28;1.23;;;28.60;56.50;;;;;;5093046;28;20496;-77
2022/09/04 11:47:23;;;;;;;5.70;0.80;;;28.50;56.80;;;;;;5070882;28;20048;-78
2022/09/04 11:50:13;;;;;;;2.20;0.40;;;28.80;56.40;;;;;;5091348;28;20069;-78
2022/09/04 11:52:49;;;;;;;3.03;0.55;;;28.80;55.60;;;;;;5093310;28;20469;-78
2022/09/04 11:55:38;;;;;;;3.40;0.40;;;29.00;55.80;;;;;;5086399;28;20534;-76
2022/09/04 11:58:46;;;;;;;11.93;1.35;;;29.30;55.80;;;;;;5087409;28;20450;-78
2022/09/04 12:01:25;;;;;;;11.32;2.10;;;29.80;54.60;;;;;;5074837;28;20428;-78
2022/09/04 12:04:06;;;;;;;13.95;1.15;;;30.30;55.50;;;;;;5081815;28;20050;-78
2022/09/04 12:07:07;;;;;;;1.30;0.40;;;30.40;55.00;;;;;;5096777;28;20039;-78
2022/09/04 12:09:52;;;;;;;1.50;0.80;;;30.20;53.40;;;;;;5091643;28;20043;-78
2022/09/04 12:12:40;;;;;;;1.92;0.20;;;29.90;55.00;;;;;;5088645;28;20490;-78
2022/09/04 12:15:32;;;;;;;1.13;0.40;;;30.00;55.30;;;;;;5088907;28;20040;-79
2022/09/04 12:18:28;;;;;;;1.23;0.50;;;30.30;54.60;;;;;;5068261;28;20052;-79
2022/09/04 12:21:34;;;;;;;4.00;0.68;;;30.50;53.50;;;;;;5078870;28;20039;-78
2022/09/04 12:25:07;;;;;;;9.10;1.40;;;30.70;54.30;;;;;;5062392;22;20419;-79
2022/09/04 12:28:15;;;;;;;1.88;0.30;;;31.20;52.20;;;;;;4941615;28;20442;-78
2022/09/04 12:31:17;;;;;;;3.83;0.57;;;31.20;52.40;;;;;;4930698;29;20052;-78
2022/09/04 12:33:57;;;;;;;2.88;1.02;;;31.00;52.70;;;;;;4936656;28;20082;-79
2022/09/04 12:36:22;;;;;;;3.10;0.50;;;31.30;53.20;;;;;;4954108;28;20039;-79
2022/09/04 12:39:08;;;;;;;3.55;0.75;;;31.50;52.50;;;;;;4962286;28;20049;-79
2022/09/04 12:41:34;;;;;;;20.08;2.70;;;31.80;51.60;;;;;;4966269;28;20485;-79
2022/09/04 12:44:25;;;;;;;5.72;0.63;;;32.00;50.90;;;;;;4968612;28;20057;-79
2022/09/04 12:47:16;;;;;;;2.40;0.38;;;32.10;50.30;;;;;;4969671;28;20504;-79
2022/09/04 12:49:52;;;;;;;1.52;0.40;;;32.00;49.80;;;;;;4970091;28;20062;-79
2022/09/04 12:52:44;;;;;;;12.50;1.27;;;31.60;50.40;;;;;;4954122;28;20046;-78
2022/09/04 12:55:41;;;;;;;2.58;0.32;;;31.70;50.30;;;;;;4971175;28;20370;-79
2022/09/04 12:58:30;;;;;;;2.83;0.60;;;31.80;49.40;;;;;;4969042;28;20054;-78
2022/09/04 13:01:22;;;;;;;0.60;0.30;;;31.90;50.50;;;;;;4970357;28;20092;-78
2022/09/04 13:04:20;;;;;;;4.07;0.50;;;31.60;50.30;;;;;;4959674;28;20055;-78
2022/09/04 13:06:54;;;;;;;1.63;0.40;;;31.50;50.10;;;;;;4955188;28;20043;-78
2022/09/04 13:09:29;;;;;;;3.33;0.75;;;31.90;50.30;;;;;;4967065;28;20431;-78
2022/09/04 13:12:39;;;;;;;2.25;0.52;;;32.40;49.80;;;;;;4969069;28;20424;-78
2022/09/04 13:15:07;;;;;;;4.75;0.50;;;32.90;47.50;;;;;;4952859;28;20053;-78
2022/09/04 13:18:33;;;;;;;3.05;0.50;;;32.70;48.50;;;;;;4964285;28;20039;-78
2022/09/04 13:21:01;;;;;;;1.63;0.30;;;32.70;48.00;;;;;;4967848;28;20069;-79
2022/09/04 13:23:46;;;;;;;1.67;0.30;;;32.50;48.20;;;;;;4969323;28;20122;-78
2022/09/04 13:26:28;;;;;;;1.58;0.30;;;32.20;48.00;;;;;;4968863;28;20047;-78
2022/09/04 13:29:07;;;;;;;3.25;0.50;;;32.20;48.20;;;;;;4969885;28;20100;-78
2022/09/04 13:31:51;;;;;;;2.33;0.40;;;32.10;48.60;;;;;;4970183;28;20501;-78
2022/09/04 13:34:27;;;;;;;1.88;0.68;;;32.10;48.60;;;;;;4969004;28;20163;-79
2022/09/04 13:37:08;;;;;;;9.80;1.35;;;32.00;49.00;;;;;;4968346;28;20043;-78
2022/09/04 13:39:49;;;;;;;6.63;0.75;;;32.40;49.80;;;;;;4969420;28;20081;-78
2022/09/04 13:42:54;;;;;;;19.02;2.75;;;32.90;49.10;;;;;;4969966;28;20446;-78
2022/09/04 13:45:24;;;;;;;2.38;0.52;;;33.30;47.10;;;;;;4968565;28;20489;-78
2022/09/04 13:48:11;;;;;;;1.77;0.45;;;33.60;47.80;;;;;;4968693;28;20051;-79
2022/09/04 13:50:53;;;;;;;1.40;0.38;;;34.10;47.60;;;;;;4950403;28;20496;-78
2022/09/04 13:53:35;;;;;;;4.18;0.75;;;34.40;46.10;;;;;;4962161;28;20034;-78
2022/09/04 13:56:11;;;;;;;7.75;0.77;;;34.70;45.70;;;;;;4984340;28;20445;-78
2022/09/04 13:58:51;;;;;;;13.20;1.48;;;34.60;45.30;;;;;;4968831;28;20051;-78
2022/09/04 14:01:20;;;;;;;5.05;0.88;;;34.50;45.60;;;;;;4957324;28;20046;-78
2022/09/04 14:04:06;;;;;;;2.60;0.60;;;34.60;45.20;;;;;;4965600;28;20059;-78
2022/09/04 14:06:35;;;;;;;1.05;0.32;;;34.60;44.90;;;;;;4969000;28;20397;-78
2022/09/04 14:09:02;;;;;;;4.35;0.90;;;34.70;45.70;;;;;;4969129;28;20401;-78
2022/09/04 14:11:46;;;;;;;11.02;1.40;;;34.70;45.30;;;;;;4969216;28;20085;-78
2022/09/04 14:14:36;;;;;;;20.10;3.65;;;34.50;45.10;;;;;;4968507;28;20540;-79
2022/09/04 14:17:06;;;;;;;1.58;0.30;;;34.30;45.40;;;;;;4960993;28;20408;-78
2022/09/04 14:19:59;;;;;;;2.17;0.50;;;34.10;44.60;;;;;;4969018;28;20051;-78
2022/09/04 14:22:48;;;;;;;3.40;1.02;;;34.10;44.90;;;;;;4969049;28;20051;-78
2022/09/04 14:25:40;;;;;;;5.57;0.98;;;33.80;45.30;;;;;;4955313;28;20058;-78
2022/09/04 14:28:26;;;;;;;0.82;0.40;;;33.80;44.50;;;;;;4971605;28;20045;-78